Time;durP1;ratioP1;P1;durP2;ratioP2;P2;SDS_P1;SDS_P2;PMS_P1;PMS_P2;Temp;Humidity;BMP_temperature;BMP_pressure;BME280_temperature;BME280_humidity;BME280_pressure;Samples;Min_cycle;Max_cycle;Signal;HPM_P1;HPM_P2
2021/12/09 00:13:51;;;;;;;30.73;19.25;;;;;;;-0.27;55.05;99552.00;4878675;29;20060;-75
2021/12/09 00:16:45;;;;;;;22.25;11.45;;;;;;;-0.26;55.00;99546.75;4910293;29;20129;-75
2021/12/09 00:19:18;;;;;;;27.75;16.10;;;;;;;-0.24;55.04;99557.91;4851959;29;20053;-74
2021/12/09 00:21:51;;;;;;;29.85;16.23;;;;;;;-0.17;55.14;99568.06;4870246;29;20267;-74
2021/12/09 00:27:46;;;;;;;27.20;14.45;;;;;;;-0.23;54.90;99572.59;4982505;28;20061;-74
2021/12/09 00:30:19;;;;;;;32.95;15.57;;;;;;;-0.26;55.14;99566.66;4985387;28;20765;-75
2021/12/09 00:32:52;;;;;;;34.85;18.42;;;;;;;-0.23;55.33;99566.56;4984544;28;20602;-74
2021/12/09 00:35:27;;;;;;;29.17;14.98;;;;;;;-0.21;55.12;99556.97;4985456;28;20074;-73
2021/12/09 00:37:59;;;;;;;36.25;22.75;;;;;;;-0.18;55.23;99567.22;4985485;28;20758;-76
2021/12/09 00:40:27;;;;;;;31.48;17.65;;;;;;;-0.24;55.23;99554.47;4986121;28;20175;-74
2021/12/09 00:42:56;;;;;;;30.25;15.55;;;;;;;-0.28;55.25;99556.34;5000375;28;20053;-74
2021/12/09 00:45:23;;;;;;;29.33;17.98;;;;;;;-0.28;55.23;99550.31;5006274;28;20052;-73
2021/12/09 00:47:51;;;;;;;31.65;16.08;;;;;;;-0.29;55.25;99544.28;5004885;28;20154;-74
2021/12/09 00:50:19;;;;;;;27.52;13.30;;;;;;;-0.29;55.27;99543.44;5004598;28;20050;-73
2021/12/09 00:52:47;;;;;;;28.17;13.65;;;;;;;-0.32;55.12;99539.22;4987441;28;20080;-74
2021/12/09 00:55:16;;;;;;;20.73;10.88;;;;;;;-0.33;55.37;99541.88;5013907;28;20111;-74
2021/12/09 00:57:44;;;;;;;27.98;14.10;;;;;;;-0.38;55.24;99544.63;5087136;28;20062;-74
2021/12/09 01:00:16;;;;;;;32.38;15.27;;;;;;;-0.37;55.60;99541.13;5087289;28;20046;-73
2021/12/09 01:02:43;;;;;;;23.95;13.45;;;;;;;-0.41;55.40;99539.56;5087202;28;20050;-73
2021/12/09 01:05:12;;;;;;;28.55;12.80;;;;;;;-0.55;55.66;99532.31;5089415;28;20044;-75
2021/12/09 01:07:41;;;;;;;29.33;12.88;;;;;;;-0.71;55.87;99537.25;5095568;28;20043;-74
2021/12/09 01:10:11;;;;;;;28.63;14.20;;;;;;;-0.84;55.92;99544.63;5097287;28;20055;-76
2021/12/09 01:12:38;;;;;;;24.25;12.27;;;;;;;-0.93;56.24;99539.78;5094171;28;20064;-76
2021/12/09 01:15:08;;;;;;;31.48;18.92;;;;;;;-0.94;56.40;99532.06;5087151;28;20100;-75
2021/12/09 01:17:36;;;;;;;29.35;15.27;;;;;;;-0.92;56.34;99532.84;5087241;28;20089;-74
2021/12/09 01:20:05;;;;;;;36.33;21.42;;;;;;;-0.92;56.26;99527.66;5088008;28;20051;-74
2021/12/09 01:22:37;;;;;;;32.42;16.83;;;;;;;-0.87;56.00;99524.00;5051920;28;20059;-74
2021/12/09 01:25:06;;;;;;;30.52;15.27;;;;;;;-0.84;56.03;99521.31;5086974;28;20089;-74
2021/12/09 01:27:36;;;;;;;34.38;16.50;;;;;;;-0.75;56.33;99508.91;5087100;28;20036;-74
2021/12/09 01:30:08;;;;;;;32.95;15.25;;;;;;;-0.78;56.25;99520.22;5087608;28;20067;-72
2021/12/09 01:32:37;;;;;;;25.10;13.65;;;;;;;-0.80;55.90;99522.03;5086603;28;20056;-74
2021/12/09 01:35:05;;;;;;;37.42;19.88;;;;;;;-0.86;56.13;99517.09;5087785;28;20131;-74
2021/12/09 01:37:33;;;;;;;43.08;24.48;;;;;;;-0.83;56.48;99527.31;5086997;28;20054;-74
2021/12/09 01:40:01;;;;;;;36.78;18.88;;;;;;;-0.79;56.20;99523.72;5087096;28;20054;-74
2021/12/09 01:42:28;;;;;;;43.80;27.13;;;;;;;-0.74;56.43;99524.38;5086985;28;20047;-74
2021/12/09 01:44:55;;;;;;;29.25;14.32;;;;;;;-0.66;56.20;99524.09;5086704;28;20218;-74
2021/12/09 01:47:22;;;;;;;30.17;16.92;;;;;;;-0.63;56.20;99513.59;5087520;28;20705;-74
2021/12/09 01:49:51;;;;;;;40.85;20.25;;;;;;;-0.62;56.35;99502.34;5088704;28;20194;-75
2021/12/09 01:52:18;;;;;;;34.20;16.42;;;;;;;-0.54;56.31;99502.03;5087631;28;20048;-75
2021/12/09 01:54:45;;;;;;;30.40;14.88;;;;;;;-0.48;56.31;99501.81;5086094;28;20234;-73
2021/12/09 01:57:12;;;;;;;29.60;14.38;;;;;;;-0.47;55.89;99498.28;5088148;28;20063;-74
2021/12/09 01:59:40;;;;;;;30.42;15.70;;;;;;;-0.44;56.03;99498.19;5095169;28;20040;-79
2021/12/09 02:02:07;;;;;;;26.08;14.57;;;;;;;-0.41;56.04;99492.88;5102193;28;20071;-77
2021/12/09 02:04:34;;;;;;;24.88;14.10;;;;;;;-0.41;56.01;99485.09;5094037;28;20048;-79
2021/12/09 02:07:04;;;;;;;41.65;22.17;;;;;;;-0.40;55.92;99484.16;5093878;28;20058;-75
2021/12/09 02:09:31;;;;;;;34.20;18.50;;;;;;;-0.39;55.85;99483.28;5103502;28;20277;-73
2021/12/09 02:11:58;;;;;;;32.75;17.83;;;;;;;-0.42;55.90;99479.03;5089439;28;20143;-73
2021/12/09 02:14:25;;;;;;;45.40;25.02;;;;;;;-0.51;56.35;99482.00;5088474;28;20048;-73
2021/12/09 02:16:52;;;;;;;35.50;20.17;;;;;;;-0.44;56.45;99480.03;5094574;28;20124;-73
2021/12/09 02:19:19;;;;;;;35.33;16.67;;;;;;;-0.43;56.19;99486.91;5090096;28;20086;-73
2021/12/09 02:21:47;;;;;;;30.40;16.88;;;;;;;-0.44;56.14;99480.84;5087154;28;20144;-73
2021/12/09 02:24:17;;;;;;;32.17;16.00;;;;;;;-0.44;56.42;99474.84;5084769;28;20127;-74
2021/12/09 02:26:46;;;;;;;29.52;13.70;;;;;;;-0.47;56.40;99477.53;5089930;28;20044;-73
2021/12/09 02:29:15;;;;;;;25.85;14.52;;;;;;;-0.45;56.33;99475.72;5098465;28;20071;-73
2021/12/09 02:31:43;;;;;;;31.67;17.05;;;;;;;-0.45;56.36;99471.41;5099019;28;20135;-72
2021/12/09 02:34:12;;;;;;;29.27;17.75;;;;;;;-0.45;56.30;99473.13;5091201;28;20063;-72
2021/12/09 02:36:42;;;;;;;29.52;16.58;;;;;;;-0.46;56.28;99474.88;5088938;28;20131;-72
2021/12/09 02:39:13;;;;;;;29.98;15.23;;;;;;;-0.50;56.58;99470.72;5095228;28;20054;-71
2021/12/09 02:41:42;;;;;;;25.55;12.98;;;;;;;-0.54;56.32;99468.31;5102182;28;20032;-72
2021/12/09 02:44:13;;;;;;;24.83;13.88;;;;;;;-0.59;56.57;99463.31;5101137;28;20130;-72
2021/12/09 02:46:41;;;;;;;26.73;13.93;;;;;;;-0.64;56.66;99465.25;5104209;28;20352;-72
2021/12/09 02:49:11;;;;;;;34.28;17.70;;;;;;;-0.72;56.84;99456.91;5097058;28;20044;-74
2021/12/09 02:51:39;;;;;;;30.60;14.85;;;;;;;-0.72;56.58;99462.97;5102903;28;20104;-72
2021/12/09 02:54:09;;;;;;;31.00;15.30;;;;;;;-0.74;56.56;99464.75;5108477;28;20058;-75
2021/12/09 02:56:38;;;;;;;32.63;16.42;;;;;;;-0.81;56.93;99481.44;5107241;28;20052;-73
2021/12/09 02:59:08;;;;;;;27.80;12.23;;;;;;;-0.83;56.82;99465.09;5104110;28;20087;-74
2021/12/09 03:01:37;;;;;;;26.90;13.13;;;;;;;-0.81;56.81;99464.16;5096658;28;20076;-73
2021/12/09 03:04:05;;;;;;;34.08;19.48;;;;;;;-0.84;56.63;99459.06;5095311;28;20131;-73
2021/12/09 03:06:34;;;;;;;32.88;16.17;;;;;;;-0.82;56.52;99456.44;5088105;28;20044;-73
2021/12/09 03:09:04;;;;;;;26.35;14.40;;;;;;;-0.80;56.69;99452.84;5087208;28;20044;-71
2021/12/09 03:11:34;;;;;;;39.35;20.10;;;;;;;-0.84;56.79;99455.66;5090873;28;20052;-72
2021/12/09 03:14:06;;;;;;;26.73;12.50;;;;;;;-0.86;56.71;99462.66;5086931;28;20058;-72
2021/12/09 03:16:33;;;;;;;30.52;13.93;;;;;;;-0.90;56.60;99466.22;5087988;28;20050;-74
2021/12/09 03:19:06;;;;;;;19.88;11.30;;;;;;;-0.88;56.62;99465.28;5087139;28;20044;-74
2021/12/09 03:21:37;;;;;;;50.15;26.25;;;;;;;-0.94;57.22;99465.50;5086513;28;20051;-74
2021/12/09 03:24:07;;;;;;;38.55;16.95;;;;;;;-0.92;56.94;99462.88;5048999;28;20040;-74
2021/12/09 03:26:38;;;;;;;36.08;17.33;;;;;;;-0.84;57.26;99464.25;5069469;28;20133;-74
2021/12/09 03:29:10;;;;;;;31.95;14.80;;;;;;;-0.80;56.79;99470.19;5086819;28;20052;-73
2021/12/09 03:31:38;;;;;;;39.10;15.52;;;;;;;-0.79;56.97;99487.44;5046742;28;20643;-74
2021/12/09 03:34:06;;;;;;;24.90;14.13;;;;;;;-0.80;56.87;99481.38;5065524;28;20662;-75
2021/12/09 03:36:34;;;;;;;43.40;18.27;;;;;;;-0.75;56.99;99485.56;5066739;28;20054;-74
2021/12/09 03:39:08;;;;;;;14.85;8.57;;;;;;;-0.67;56.81;99480.91;5064863;28;20062;-74
2021/12/09 03:41:37;;;;;;;36.27;16.77;;;;;;;-0.67;56.77;99488.69;5069439;28;20515;-74
2021/12/09 03:44:07;;;;;;;21.83;12.60;;;;;;;-0.63;56.55;99493.72;5069025;28;20045;-74
2021/12/09 03:46:35;;;;;;;25.75;14.95;;;;;;;-0.66;56.82;99499.00;5068756;28;20078;-74
2021/12/09 03:49:04;;;;;;;39.80;21.75;;;;;;;-0.67;56.87;99501.66;5070376;28;20052;-72
2021/12/09 03:51:35;;;;;;;48.47;20.60;;;;;;;-0.60;56.82;99490.16;5069288;28;20049;-73
2021/12/09 03:54:03;;;;;;;31.38;17.20;;;;;;;-0.55;56.94;99500.34;5068801;28;20048;-75
2021/12/09 03:56:31;;;;;;;38.05;20.85;;;;;;;-0.51;56.88;99494.13;5073746;28;20113;-74
2021/12/09 03:58:58;;;;;;;49.15;22.60;;;;;;;-0.55;57.13;99500.34;5074210;28;20052;-74
2021/12/09 04:01:26;;;;;;;32.22;14.85;;;;;;;-0.56;57.39;99509.88;5068600;28;20135;-75
2021/12/09 04:03:55;;;;;;;40.28;18.52;;;;;;;-0.62;57.34;99505.75;5050840;28;20051;-73
2021/12/09 04:06:22;;;;;;;39.50;19.48;;;;;;;-0.61;57.87;99511.81;5070057;28;20049;-71
2021/12/09 04:08:49;;;;;;;28.75;16.15;;;;;;;-0.62;57.71;99516.13;5069511;28;20139;-75
2021/12/09 04:11:17;;;;;;;40.85;22.25;;;;;;;-0.60;58.00;99516.91;5069909;28;20067;-74
2021/12/09 04:13:44;;;;;;;44.03;22.05;;;;;;;-0.63;58.03;99511.88;5069044;28;20045;-75
2021/12/09 04:16:12;;;;;;;37.05;16.30;;;;;;;-0.61;57.98;99504.88;5069927;28;20080;-74
2021/12/09 04:18:42;;;;;;;44.05;24.95;;;;;;;-0.59;58.57;99497.88;5083099;28;20044;-75
2021/12/09 04:21:10;;;;;;;27.58;16.15;;;;;;;-0.56;58.49;99494.31;5069222;28;20045;-74
2021/12/09 04:23:37;;;;;;;34.45;16.60;;;;;;;-0.59;58.49;99497.03;5069324;28;20095;-74
2021/12/09 04:26:05;;;;;;;39.35;18.52;;;;;;;-0.60;58.39;99490.16;5068592;28;20048;-75
2021/12/09 04:28:33;;;;;;;32.83;16.75;;;;;;;-0.62;58.58;99492.78;5033302;28;20369;-76
2021/12/09 04:31:01;;;;;;;38.60;21.88;;;;;;;-0.63;58.51;99492.84;5069153;28;20583;-74
2021/12/09 04:33:29;;;;;;;27.65;13.55;;;;;;;-0.61;58.58;99489.31;5089980;28;20194;-76
2021/12/09 04:35:59;;;;;;;35.95;14.98;;;;;;;-0.60;58.39;99488.38;5108269;28;20040;-76
2021/12/09 04:38:26;;;;;;;46.28;23.10;;;;;;;-0.56;58.23;99499.50;5112318;28;20198;-76
2021/12/09 04:40:53;;;;;;;34.90;15.70;;;;;;;-0.54;58.11;99497.72;5112551;28;20060;-75
2021/12/09 04:43:20;;;;;;;36.85;19.88;;;;;;;-0.53;58.31;99493.34;5112155;28;20055;-75
2021/12/09 04:45:47;;;;;;;31.10;14.55;;;;;;;-0.53;58.27;99488.16;5112119;28;20039;-74
2021/12/09 04:48:15;;;;;;;29.77;15.38;;;;;;;-0.49;58.09;99497.50;5108780;28;20051;-74
2021/12/09 04:50:43;;;;;;;43.80;21.95;;;;;;;-0.49;58.38;99485.38;5104488;28;20143;-73
2021/12/09 04:53:12;;;;;;;44.78;26.98;;;;;;;-0.48;58.71;99481.06;5091953;28;20040;-76
2021/12/09 04:55:40;;;;;;;37.85;20.38;;;;;;;-0.52;58.20;99475.16;5090714;28;20406;-75
2021/12/09 04:58:07;;;;;;;36.28;16.40;;;;;;;-0.55;58.35;99471.81;5096352;28;20083;-76
2021/12/09 05:00:38;;;;;;;24.52;15.27;;;;;;;-0.52;58.28;99469.09;5113577;28;20047;-76
2021/12/09 05:03:08;;;;;;;35.42;17.45;;;;;;;-0.57;58.44;99471.03;5114931;28;20044;-72
2021/12/09 05:05:38;;;;;;;21.67;10.80;;;;;;;-0.55;58.56;99475.25;5095712;28;20047;-74
2021/12/09 05:08:07;;;;;;;23.85;13.48;;;;;;;-0.60;58.41;99472.00;5112381;28;20051;-74
2021/12/09 05:10:51;;;;;;;36.00;18.02;;;;;;;-0.63;58.69;99483.34;5115213;28;20257;-75
2021/12/09 05:13:19;;;;;;;30.08;16.48;;;;;;;-0.62;58.42;99472.03;5114175;28;20396;-74
2021/12/09 05:15:49;;;;;;;39.63;18.98;;;;;;;-0.61;58.75;99468.56;5110413;28;20070;-74
2021/12/09 05:18:18;;;;;;;44.70;21.45;;;;;;;-0.62;58.86;99474.63;5109808;28;20096;-75
2021/12/09 05:20:46;;;;;;;23.45;13.63;;;;;;;-0.64;58.57;99484.22;5109247;28;20069;-75
2021/12/09 05:23:14;;;;;;;27.10;13.90;;;;;;;-0.68;58.63;99490.44;5107383;28;20139;-74
2021/12/09 05:25:43;;;;;;;33.70;16.25;;;;;;;-0.70;58.89;99500.03;5107433;28;20139;-73
2021/12/09 05:28:15;;;;;;;31.48;16.33;;;;;;;-0.72;58.94;99488.03;5091127;28;20055;-73
2021/12/09 05:32:07;;;;;;;42.50;23.52;;;;;;;-0.68;58.82;99492.22;5111711;28;20092;-74
2021/12/09 05:33:29;;;;;;;33.25;17.67;;;;;;;-0.67;58.44;99496.47;5093175;28;20052;-75
2021/12/09 05:35:57;;;;;;;29.38;16.35;;;;;;;-0.67;58.64;99475.72;5097158;28;20455;-73
2021/12/09 05:38:25;;;;;;;17.85;12.50;;;;;;;-0.69;58.72;99480.13;5096557;28;20131;-76
2021/12/09 05:40:57;;;;;;;39.00;23.33;;;;;;;-0.71;58.75;99472.41;5078281;28;20255;-77
2021/12/09 05:43:24;;;;;;;33.90;16.75;;;;;;;-0.71;58.83;99480.19;5096726;28;20048;-75
2021/12/09 05:45:51;;;;;;;37.50;15.68;;;;;;;-0.67;59.09;99478.31;5087892;28;20143;-71
2021/12/09 05:48:19;;;;;;;25.95;13.23;;;;;;;-0.63;58.88;99479.88;5089012;28;20215;-78
2021/12/09 05:50:47;;;;;;;26.13;10.90;;;;;;;-0.67;58.91;99479.16;5089750;28;20058;-77
2021/12/09 05:53:15;;;;;;;32.85;15.75;;;;;;;-0.67;58.85;99486.09;5089576;28;20131;-75
2021/12/09 05:55:43;;;;;;;35.92;17.85;;;;;;;-0.65;58.86;99492.94;5088144;28;20055;-74
2021/12/09 05:58:14;;;;;;;34.05;18.55;;;;;;;-0.64;58.97;99502.38;5086725;28;20056;-76
2021/12/09 06:00:43;;;;;;;22.02;13.25;;;;;;;-0.67;58.94;99499.91;5086175;28;20048;-74
2021/12/09 06:03:10;;;;;;;38.50;23.13;;;;;;;-0.71;58.99;99497.50;5086266;28;20054;-75
2021/12/09 06:05:38;;;;;;;40.65;22.92;;;;;;;-0.73;59.11;99497.56;5091038;28;20098;-76
2021/12/09 06:08:10;;;;;;;35.33;18.95;;;;;;;-0.70;59.48;99502.63;5087360;28;20075;-77
2021/12/09 06:10:38;;;;;;;44.28;27.55;;;;;;;-0.73;59.24;99502.75;5090939;28;20060;-74
2021/12/09 06:13:07;;;;;;;44.70;22.90;;;;;;;-0.72;59.28;99519.13;5089379;28;20044;-72
2021/12/09 06:15:35;;;;;;;36.22;23.23;;;;;;;-0.73;59.13;99528.69;5091268;28;20075;-75
2021/12/09 06:18:03;;;;;;;29.05;15.65;;;;;;;-0.72;59.24;99527.78;5088749;28;20048;-79
2021/12/09 06:20:30;;;;;;;36.63;19.98;;;;;;;-0.74;59.15;99526.97;5087877;28;20054;-76
2021/12/09 06:23:02;;;;;;;46.72;23.08;;;;;;;-0.74;59.29;99532.16;5088692;28;20107;-76
2021/12/09 06:25:31;;;;;;;39.35;18.48;;;;;;;-0.72;59.39;99525.19;5085878;28;20126;-74
2021/12/09 06:27:59;;;;;;;30.63;16.70;;;;;;;-0.68;59.04;99521.56;5086587;28;20391;-74
2021/12/09 06:30:26;;;;;;;48.25;25.55;;;;;;;-0.70;59.41;99549.31;5086653;28;20051;-76
2021/12/09 06:32:58;;;;;;;33.65;15.45;;;;;;;-0.63;59.62;99544.72;5102153;28;20208;-75
2021/12/09 06:35:27;;;;;;;33.53;15.82;;;;;;;-0.65;59.27;99539.63;5107963;28;20055;-76
2021/12/09 06:37:54;;;;;;;28.10;14.10;;;;;;;-0.64;59.38;99522.31;5108586;28;20112;-74
2021/12/09 06:40:23;;;;;;;38.13;22.13;;;;;;;-0.71;59.45;99529.47;5056777;28;20135;-75
2021/12/09 06:42:52;;;;;;;35.40;16.13;;;;;;;-0.70;59.63;99522.50;5108561;28;20448;-71
2021/12/09 06:45:22;;;;;;;27.08;15.75;;;;;;;-0.72;59.38;99514.81;5108027;28;20501;-79
2021/12/09 06:47:51;;;;;;;27.90;11.32;;;;;;;-0.73;59.63;99507.94;5106011;28;20052;-71
2021/12/09 06:50:21;;;;;;;35.97;16.63;;;;;;;-0.76;59.60;99508.03;5107881;28;20416;-74
2021/12/09 06:52:49;;;;;;;31.83;14.63;;;;;;;-0.76;59.38;99497.66;5105239;28;20059;-73
2021/12/09 06:55:21;;;;;;;47.85;21.13;;;;;;;-0.77;59.44;99490.81;5109395;28;20115;-73
2021/12/09 06:57:49;;;;;;;53.90;28.17;;;;;;;-0.81;59.95;99497.00;5107513;28;20196;-75
2021/12/09 07:00:19;;;;;;;27.35;15.77;;;;;;;-0.80;59.72;99491.75;5105587;28;20545;-72
2021/12/09 07:02:46;;;;;;;38.30;19.02;;;;;;;-0.82;59.91;99505.69;5106113;28;20048;-73
2021/12/09 07:05:14;;;;;;;46.60;20.38;;;;;;;-0.78;59.71;99540.97;5104737;28;20122;-74
2021/12/09 07:07:44;;;;;;;37.80;15.50;;;;;;;-0.67;59.57;99518.06;5106752;28;20043;-74
2021/12/09 07:10:13;;;;;;;30.90;15.45;;;;;;;-0.63;59.41;99504.09;5105362;28;20134;-75
2021/12/09 07:12:40;;;;;;;38.38;18.85;;;;;;;-0.60;59.38;99523.88;5109146;28;20361;-77
2021/12/09 07:15:10;;;;;;;54.88;25.23;;;;;;;-0.61;59.86;99528.22;5118584;28;20070;-72
2021/12/09 07:17:37;;;;;;;38.28;17.17;;;;;;;-0.51;59.53;99538.22;5112878;28;20083;-73
2021/12/09 07:20:08;;;;;;;45.33;20.65;;;;;;;-0.45;59.79;99533.66;5107362;28;20131;-77
2021/12/09 07:22:35;;;;;;;29.25;13.32;;;;;;;-0.40;59.17;99526.56;5108131;28;20500;-79
2021/12/09 07:25:04;;;;;;;42.20;22.08;;;;;;;-0.43;59.52;99531.84;5108136;28;20122;-74
2021/12/09 07:27:32;;;;;;;26.67;14.05;;;;;;;-0.41;59.42;99524.00;5109048;28;20043;-73
2021/12/09 07:29:59;;;;;;;37.85;19.30;;;;;;;-0.44;59.32;99529.31;5109676;28;20769;-75
2021/12/09 07:32:26;;;;;;;45.72;21.90;;;;;;;-0.47;59.32;99519.91;5109718;28;20056;-78
2021/12/09 07:34:54;;;;;;;50.35;24.73;;;;;;;-0.51;59.61;99520.06;5109615;28;20054;-75
2021/12/09 07:37:23;;;;;;;35.28;14.80;;;;;;;-0.44;59.81;99519.78;5111872;28;20166;-72
2021/12/09 07:39:50;;;;;;;50.80;25.92;;;;;;;-0.44;59.52;99518.94;5108026;28;20053;-73
2021/12/09 07:42:19;;;;;;;34.60;14.10;;;;;;;-0.42;59.62;99515.38;5110751;28;20174;-74
2021/12/09 07:44:46;;;;;;;45.88;21.30;;;;;;;-0.45;59.64;99509.44;5111744;28;20130;-76
2021/12/09 07:47:14;;;;;;;22.92;12.20;;;;;;;-0.45;59.97;99505.13;5113687;28;20108;-76
2021/12/09 07:49:41;;;;;;;34.90;16.45;;;;;;;-0.45;59.61;99505.13;5113228;28;20123;-72
2021/12/09 07:52:08;;;;;;;37.70;16.45;;;;;;;-0.42;59.48;99501.56;5109843;28;20075;-72
2021/12/09 07:54:35;;;;;;;26.25;13.80;;;;;;;-0.42;59.51;99481.63;5109753;28;20039;-76
2021/12/09 07:57:03;;;;;;;30.52;12.55;;;;;;;-0.40;59.79;99491.94;5111174;28;20142;-72
2021/12/09 07:59:31;;;;;;;35.80;15.13;;;;;;;-0.40;59.70;99491.94;5114780;28;20443;-74
2021/12/09 08:01:58;;;;;;;43.45;24.27;;;;;;;-0.39;59.71;99504.03;5117793;28;20051;-77
2021/12/09 08:04:25;;;;;;;34.88;19.90;;;;;;;-0.30;59.51;99500.22;5109455;28;20112;-75
2021/12/09 08:06:52;;;;;;;24.42;14.95;;;;;;;-0.30;59.50;99506.25;5109976;28;20127;-75
2021/12/09 08:09:20;;;;;;;43.42;21.15;;;;;;;-0.32;59.50;99515.88;5129624;28;20071;-75
2021/12/09 08:11:47;;;;;;;43.83;20.85;;;;;;;-0.27;59.90;99516.53;5130930;28;20063;-78
2021/12/09 08:14:16;;;;;;;33.58;14.52;;;;;;;-0.23;59.66;99517.25;5117251;28;20534;-80
2021/12/09 08:16:45;;;;;;;35.90;17.25;;;;;;;-0.23;59.54;99523.28;5110959;28;20510;-78
2021/12/09 08:19:14;;;;;;;48.00;16.63;;;;;;;-0.17;59.32;99536.91;5110894;28;20097;-78
2021/12/09 08:21:42;;;;;;;24.95;10.13;;;;;;;-0.16;59.47;99541.19;5110887;28;20134;-77
2021/12/09 08:24:12;;;;;;;39.95;21.48;;;;;;;-0.11;59.73;99547.03;5110397;28;20055;-75
2021/12/09 08:26:39;;;;;;;42.75;22.25;;;;;;;-0.06;59.45;99535.56;5112525;28;20048;-79
2021/12/09 08:29:09;;;;;;;30.98;14.52;;;;;;;-0.01;59.25;99530.19;5124208;28;20059;-75
2021/12/09 08:31:36;;;;;;;35.67;15.88;;;;;;;0.02;59.15;99527.50;5128279;28;20042;-74
2021/12/09 08:34:04;;;;;;;34.30;15.88;;;;;;;0.00;59.22;99521.53;5124940;28;20662;-79
2021/12/09 08:36:32;;;;;;;28.20;17.63;;;;;;;-0.03;59.25;99511.25;5110755;28;20570;-76
2021/12/09 08:39:00;;;;;;;26.30;15.25;;;;;;;-0.04;59.49;99522.53;5110562;28;20055;-77
2021/12/09 08:41:27;;;;;;;13.85;7.72;;;;;;;-0.03;59.41;99529.41;5110923;28;20104;-76
2021/12/09 08:43:54;;;;;;;36.47;18.38;;;;;;;-0.01;59.37;99532.78;5111071;28;20123;-79
2021/12/09 08:46:21;;;;;;;38.05;19.00;;;;;;;0.06;59.39;99533.41;5111750;28;20044;-73
2021/12/09 08:48:48;;;;;;;31.85;14.63;;;;;;;0.16;59.01;99535.56;5111129;28;20491;-72
2021/12/09 08:51:17;;;;;;;40.13;20.10;;;;;;;0.27;59.11;99534.25;5117223;28;20210;-74
2021/12/09 08:53:44;;;;;;;45.85;21.13;;;;;;;0.32;58.98;99532.31;5110942;28;20069;-75
2021/12/09 08:56:12;;;;;;;38.30;21.63;;;;;;;0.37;58.90;99548.56;5105988;28;20683;-74
2021/12/09 08:58:39;;;;;;;27.67;13.55;;;;;;;0.42;58.83;99557.00;5088549;28;20054;-75
2021/12/09 09:01:11;;;;;;;43.15;19.55;;;;;;;0.42;58.67;99554.41;5118095;28;20071;-78
2021/12/09 09:03:38;;;;;;;20.98;11.93;;;;;;;0.45;58.55;99556.88;5105640;28;21082;-74
2021/12/09 09:06:07;;;;;;;30.08;13.88;;;;;;;0.48;58.52;99556.72;5103859;28;20223;-74
2021/12/09 09:08:36;;;;;;;31.85;15.98;;;;;;;0.53;58.43;99544.38;5102574;28;20475;-75
2021/12/09 09:11:03;;;;;;;24.58;14.57;;;;;;;0.56;58.29;99553.81;5104192;28;20047;-74
2021/12/09 09:13:30;;;;;;;39.65;20.23;;;;;;;0.50;58.70;99539.31;5104903;28;20122;-77
2021/12/09 09:15:59;;;;;;;25.63;13.52;;;;;;;0.58;58.74;99531.22;5102100;28;20343;-72
2021/12/09 09:18:26;;;;;;;48.30;27.13;;;;;;;0.61;58.72;99546.66;5104843;28;20501;-74
2021/12/09 09:20:53;;;;;;;26.45;14.02;;;;;;;0.75;58.16;99533.91;5104594;28;20502;-71
2021/12/09 09:23:22;;;;;;;40.38;17.67;;;;;;;0.83;58.18;99531.00;5102924;28;20774;-78
2021/12/09 09:25:51;;;;;;;27.73;13.85;;;;;;;0.91;58.00;99531.47;5104494;28;20079;-73
2021/12/09 09:28:20;;;;;;;22.88;11.25;;;;;;;0.89;57.88;99529.88;5104133;28;20717;-73
2021/12/09 09:30:53;;;;;;;25.05;11.65;;;;;;;0.96;57.85;99523.50;5104778;28;20123;-72
2021/12/09 09:33:24;;;;;;;27.30;17.25;;;;;;;1.09;57.64;99524.63;5104949;28;20044;-73
2021/12/09 09:35:54;;;;;;;18.40;9.18;;;;;;;1.19;57.71;99513.78;5103319;28;20675;-73
2021/12/09 09:38:25;;;;;;;43.88;18.77;;;;;;;1.24;57.61;99512.69;5087138;28;20108;-73
2021/12/09 09:41:05;;;;;;;45.22;22.63;;;;;;;1.37;57.13;99505.16;5109204;28;20055;-78
2021/12/09 09:43:44;;;;;;;37.67;22.23;;;;;;;1.52;56.92;99500.97;5089528;28;20262;-74
2021/12/09 09:46:13;;;;;;;40.97;21.95;;;;;;;1.50;56.56;99500.22;5106319;28;20067;-76
2021/12/09 09:48:41;;;;;;;45.58;21.83;;;;;;;1.40;56.81;99509.38;5106877;28;20122;-76
2021/12/09 09:51:13;;;;;;;39.35;18.77;;;;;;;1.36;56.98;99502.63;5106187;28;20055;-77
2021/12/09 09:53:42;;;;;;;38.65;16.73;;;;;;;1.33;57.17;99504.47;5107614;28;20043;-78
2021/12/09 09:56:19;;;;;;;34.53;18.02;;;;;;;1.36;57.25;99503.47;5104531;28;20724;-74
2021/12/09 09:58:49;;;;;;;49.88;32.17;;;;;;;1.31;57.04;99508.91;5105533;28;20050;-74
2021/12/09 10:01:20;;;;;;;39.10;21.42;;;;;;;1.27;56.88;99494.31;5107255;28;20264;-74
2021/12/09 10:03:58;;;;;;;39.72;19.48;;;;;;;1.22;56.85;99488.47;5105919;28;20051;-77
2021/12/09 10:06:28;;;;;;;33.65;14.57;;;;;;;1.19;56.96;99491.25;5072314;28;20048;-73
2021/12/09 10:08:57;;;;;;;33.75;17.40;;;;;;;1.11;57.12;99495.94;5108693;28;20070;-75
2021/12/09 10:11:25;;;;;;;39.90;17.35;;;;;;;1.11;57.16;99507.19;5053577;28;20059;-74
2021/12/09 10:13:53;;;;;;;39.40;21.92;;;;;;;1.18;57.21;99489.53;5107169;28;20055;-72
2021/12/09 10:16:22;;;;;;;30.05;13.25;;;;;;;1.26;56.91;99486.59;5109764;28;20569;-72
2021/12/09 10:18:52;;;;;;;33.17;19.90;;;;;;;1.23;57.12;99481.53;5106943;28;20109;-77
2021/12/09 10:21:25;;;;;;;39.83;16.15;;;;;;;1.23;57.38;99476.34;5108263;28;20101;-73
2021/12/09 10:24:00;;;;;;;33.35;16.58;;;;;;;1.15;57.30;99476.66;5106176;28;20566;-76
2021/12/09 10:26:30;;;;;;;31.83;14.18;;;;;;;1.22;57.08;99479.84;5087733;28;20067;-77
2021/12/09 10:29:07;;;;;;;34.83;18.42;;;;;;;1.19;57.08;99479.97;5111366;28;20039;-77
2021/12/09 10:31:40;;;;;;;36.83;17.33;;;;;;;1.22;57.01;99480.69;5111269;28;20059;-74
2021/12/09 10:34:18;;;;;;;39.65;19.70;;;;;;;1.24;57.02;99481.47;5107134;28;20052;-75
2021/12/09 10:37:06;;;;;;;47.05;24.27;;;;;;;1.28;57.12;99474.38;5105698;28;20059;-74
2021/12/09 10:39:38;;;;;;;33.95;19.00;;;;;;;1.29;57.20;99463.88;5105585;28;20632;-72
2021/12/09 10:42:12;;;;;;;49.03;25.83;;;;;;;1.26;56.95;99456.22;5105707;28;20079;-72
2021/12/09 10:44:47;;;;;;;61.05;28.77;;;;;;;1.31;57.02;99450.78;5105475;28;20066;-74
2021/12/09 10:47:22;;;;;;;44.45;22.25;;;;;;;1.40;56.74;99454.72;5106786;28;20039;-74
2021/12/09 10:50:05;;;;;;;24.92;10.55;;;;;;;1.39;56.98;99453.03;5112862;28;20055;-77
2021/12/09 10:52:41;;;;;;;39.72;22.15;;;;;;;1.30;56.75;99449.97;5105057;28;20051;-74
2021/12/09 10:55:23;;;;;;;38.88;21.05;;;;;;;1.28;56.92;99446.59;5103929;28;20510;-73
2021/12/09 10:58:01;;;;;;;41.10;18.45;;;;;;;1.31;57.15;99443.84;5110227;28;20043;-74
2021/12/09 11:00:34;;;;;;;34.08;17.65;;;;;;;1.39;56.93;99440.88;5109110;28;20573;-74
2021/12/09 11:03:08;;;;;;;28.67;16.15;;;;;;;1.35;56.76;99421.09;5108642;28;20416;-77
2021/12/09 11:05:38;;;;;;;41.13;24.13;;;;;;;1.25;56.90;99428.50;5108440;28;20043;-77
2021/12/09 11:08:17;;;;;;;46.60;28.23;;;;;;;1.27;57.11;99420.66;5109702;28;20168;-72
2021/12/09 11:10:48;;;;;;;37.53;19.17;;;;;;;1.26;56.97;99419.81;5115780;28;20204;-75
2021/12/09 11:13:20;;;;;;;29.85;16.25;;;;;;;1.32;57.17;99427.31;5108964;28;20655;-75
2021/12/09 11:15:52;;;;;;;47.90;25.73;;;;;;;1.44;56.92;99412.88;5106381;28;20089;-76
2021/12/09 11:18:42;;;;;;;40.95;18.42;;;;;;;1.63;56.80;99412.81;5106737;28;20711;-77
2021/12/09 11:21:15;;;;;;;42.80;20.85;;;;;;;1.65;56.51;99404.94;5085901;28;20060;-74
2021/12/09 11:23:49;;;;;;;40.22;19.08;;;;;;;1.70;56.28;99390.75;5105192;28;20051;-74
2021/12/09 11:26:33;;;;;;;35.88;18.05;;;;;;;1.79;56.54;99409.47;5088623;28;20067;-75
2021/12/09 11:29:12;;;;;;;43.60;20.02;;;;;;;1.93;56.40;99409.63;5107000;28;20047;-74
2021/12/09 11:31:42;;;;;;;36.95;18.75;;;;;;;2.11;55.92;99407.84;5106119;28;20105;-77
2021/12/09 11:34:14;;;;;;;42.38;23.00;;;;;;;2.13;56.08;99394.75;5084944;28;20054;-77
2021/12/09 11:36:48;;;;;;;32.92;18.00;;;;;;;2.17;55.79;99388.44;5106867;28;20070;-79
2021/12/09 11:39:22;;;;;;;30.13;17.38;;;;;;;2.11;55.78;99392.22;5107881;28;20076;-78
2021/12/09 11:41:49;;;;;;;51.92;27.25;;;;;;;2.15;56.03;99398.09;5107304;28;20060;-80
2021/12/09 11:44:18;;;;;;;44.60;21.23;;;;;;;2.19;55.87;99394.41;5107467;28;20048;-75
2021/12/09 11:46:50;;;;;;;42.15;19.83;;;;;;;2.11;55.93;99397.41;5107182;28;20465;-73